createdAt,value
2018-05-11T00:02:24.740Z,14.00
2018-05-11T00:04:51.354Z,13.90
2018-05-11T00:07:18.499Z,13.80
2018-05-11T00:09:44.943Z,13.80
2018-05-11T00:12:12.091Z,13.70
2018-05-11T00:14:39.377Z,13.70
2018-05-11T00:17:05.815Z,13.70
2018-05-11T00:19:32.776Z,13.80
2018-05-11T00:21:59.228Z,13.80
2018-05-11T00:24:25.653Z,13.90
2018-05-11T00:26:52.076Z,13.90
2018-05-11T00:29:18.451Z,13.90
2018-05-11T00:31:44.900Z,13.80
2018-05-11T00:34:11.312Z,13.80
2018-05-11T00:36:39.055Z,13.80
2018-05-11T00:39:05.500Z,13.80
2018-05-11T00:41:32.661Z,13.70
2018-05-11T00:43:59.845Z,13.70
2018-05-11T00:46:26.311Z,13.70
2018-05-11T00:48:52.681Z,13.60
2018-05-11T00:51:19.132Z,13.50
2018-05-11T00:53:45.508Z,13.50
2018-05-11T00:56:12.631Z,13.50
2018-05-11T00:58:39.017Z,13.50
2018-05-11T01:01:05.463Z,13.50
2018-05-11T01:03:31.853Z,13.50
2018-05-11T01:05:58.322Z,13.40
2018-05-11T01:08:24.697Z,13.40
2018-05-11T01:10:51.152Z,13.50
2018-05-11T01:13:17.551Z,13.50
2018-05-11T01:15:43.955Z,13.50
2018-05-11T01:18:10.324Z,13.30
2018-05-11T01:20:36.776Z,13.30
2018-05-11T01:23:03.074Z,13.30
2018-05-11T01:25:29.491Z,13.40
2018-05-11T01:27:55.912Z,13.40
2018-05-11T01:30:22.311Z,13.30
2018-05-11T01:32:49.398Z,13.20
2018-05-11T01:35:15.808Z,13.20
2018-05-11T01:37:42.200Z,13.10
2018-05-11T01:40:08.616Z,13.10
2018-05-11T01:42:34.998Z,13.10
2018-05-11T01:45:02.081Z,13.10
2018-05-11T01:47:28.491Z,13.20
2018-05-11T01:49:54.917Z,13.20
2018-05-11T01:52:21.346Z,13.20
2018-05-11T01:54:48.452Z,13.30
2018-05-11T01:57:14.853Z,13.30
2018-05-11T01:59:41.232Z,13.40
2018-05-11T02:02:08.359Z,13.40
2018-05-11T02:04:34.772Z,13.40
2018-05-11T02:07:01.173Z,13.50
2018-05-11T02:09:27.564Z,13.40
2018-05-11T02:11:53.991Z,13.30
2018-05-11T02:14:20.371Z,13.30
2018-05-11T02:16:46.761Z,13.30
2018-05-11T02:19:13.203Z,13.30
2018-05-11T02:21:40.349Z,13.30
2018-05-11T02:24:07.469Z,13.30
2018-05-11T02:26:33.874Z,13.30
2018-05-11T02:29:00.263Z,13.30
2018-05-11T02:31:27.410Z,13.10
2018-05-11T02:33:53.806Z,13.00
2018-05-11T02:36:20.244Z,13.10
2018-05-11T02:38:46.627Z,13.10
2018-05-11T02:41:13.061Z,13.10
2018-05-11T02:43:39.447Z,13.00
2018-05-11T02:46:05.843Z,12.90
2018-05-11T02:48:32.255Z,12.90
2018-05-11T02:50:58.660Z,12.90
2018-05-11T02:53:25.805Z,13.00
2018-05-11T02:55:52.965Z,13.00
2018-05-11T02:58:19.372Z,13.00
2018-05-11T03:00:45.738Z,13.00
2018-05-11T03:03:12.184Z,12.90
2018-05-11T03:05:38.695Z,13.00
2018-05-11T03:08:05.020Z,12.80
2018-05-11T03:10:32.135Z,12.90
2018-05-11T03:12:58.525Z,12.80
2018-05-11T03:15:24.951Z,12.80
2018-05-11T03:17:51.325Z,12.60
2018-05-11T03:20:17.716Z,12.50
2018-05-11T03:22:44.100Z,12.50
2018-05-11T03:25:10.530Z,12.50
2018-05-11T03:27:36.865Z,12.40
2018-05-11T03:30:03.267Z,12.40
2018-05-11T03:32:29.706Z,12.40
2018-05-11T03:34:56.116Z,12.30
2018-05-11T03:37:23.039Z,12.30
2018-05-11T03:39:49.451Z,12.30
2018-05-11T03:42:15.857Z,12.30
2018-05-11T03:44:42.269Z,12.30
2018-05-11T03:47:08.663Z,12.40
2018-05-11T03:49:35.105Z,12.30
2018-05-11T03:52:01.529Z,12.20
2018-05-11T03:54:27.904Z,12.20
2018-05-11T03:56:54.354Z,12.20
2018-05-11T03:59:21.473Z,12.30
2018-05-11T04:02:06.312Z,12.30
2018-05-11T04:04:51.555Z,12.30
2018-05-11T04:07:37.200Z,12.40
2018-05-11T04:10:03.632Z,12.40
2018-05-11T04:12:30.009Z,12.40
2018-05-11T04:14:56.496Z,12.40
2018-05-11T04:17:22.833Z,12.40
2018-05-11T04:19:49.232Z,12.20
2018-05-11T04:22:15.591Z,12.20
2018-05-11T04:24:41.962Z,12.30
2018-05-11T04:27:08.350Z,12.20
2018-05-11T04:29:34.720Z,12.20
2018-05-11T04:32:01.096Z,12.20
2018-05-11T04:34:27.466Z,12.30
2018-05-11T04:36:55.320Z,12.20
2018-05-11T04:39:22.426Z,12.30
2018-05-11T04:41:48.816Z,12.30
2018-05-11T04:44:15.220Z,12.40
2018-05-11T04:46:41.619Z,12.40
2018-05-11T04:49:07.971Z,12.40
2018-05-11T04:51:34.440Z,12.50
2018-05-11T04:54:00.820Z,12.50
2018-05-11T04:56:27.249Z,12.30
2018-05-11T04:58:53.625Z,12.20
2018-05-11T05:01:20.013Z,12.20
2018-05-11T05:03:46.361Z,12.20
2018-05-11T05:06:12.760Z,12.30
2018-05-11T05:08:39.176Z,12.40
2018-05-11T05:11:05.544Z,12.50
2018-05-11T05:13:31.957Z,12.60
2018-05-11T05:15:58.358Z,12.60
2018-05-11T05:18:24.816Z,12.60
2018-05-11T05:20:51.199Z,12.60
2018-05-11T05:23:17.612Z,12.60
2018-05-11T05:25:43.971Z,12.60
2018-05-11T05:28:11.117Z,12.70
2018-05-11T05:30:38.351Z,12.80
2018-05-11T05:33:04.827Z,12.80
2018-05-11T05:35:31.177Z,12.90
2018-05-11T05:37:57.599Z,13.00
2018-05-11T05:40:24.031Z,12.90
2018-05-11T05:42:50.420Z,12.90
2018-05-11T05:45:17.546Z,13.00
2018-05-11T05:47:43.943Z,13.00
2018-05-11T05:50:10.367Z,13.10
2018-05-11T05:52:37.548Z,13.00
2018-05-11T05:55:04.829Z,13.00
2018-05-11T05:57:31.995Z,13.10
2018-05-11T05:59:59.205Z,13.10
2018-05-11T06:02:25.592Z,13.10
2018-05-11T06:04:51.979Z,13.10
2018-05-11T06:07:18.388Z,13.00
2018-05-11T06:09:44.785Z,13.00
2018-05-11T06:12:11.215Z,13.00
2018-05-11T06:14:37.667Z,12.90
2018-05-11T06:17:04.087Z,12.90
2018-05-11T06:19:30.458Z,13.10
2018-05-11T06:21:56.924Z,13.20
2018-05-11T06:24:23.332Z,13.40
2018-05-11T06:26:49.814Z,13.40
2018-05-11T06:29:16.993Z,13.60
2018-05-11T06:31:43.458Z,13.60
2018-05-11T06:34:09.863Z,13.80
2018-05-11T06:36:36.259Z,13.80
2018-05-11T06:39:05.584Z,13.70
2018-05-11T06:41:31.978Z,13.80
2018-05-11T06:43:58.248Z,13.80
2018-05-11T06:46:25.396Z,13.80
2018-05-11T06:48:51.803Z,13.80
2018-05-11T06:51:18.228Z,13.80
2018-05-11T06:53:44.611Z,13.80
2018-05-11T06:56:11.738Z,13.80
2018-05-11T06:58:38.175Z,13.70
2018-05-11T07:01:04.589Z,13.70
2018-05-11T07:03:31.018Z,13.80
2018-05-11T07:05:57.434Z,13.80
2018-05-11T07:08:23.872Z,13.90
2018-05-11T07:10:50.410Z,14.00
2018-05-11T07:13:16.777Z,14.20
2018-05-11T07:15:43.955Z,14.50
2018-05-11T07:18:10.353Z,14.50
2018-05-11T07:20:37.578Z,14.70
2018-05-11T07:23:04.001Z,14.70
2018-05-11T07:25:30.455Z,14.70
2018-05-11T07:27:56.923Z,14.60
2018-05-11T07:30:24.132Z,14.60
2018-05-11T07:32:50.537Z,14.50
2018-05-11T07:35:16.901Z,14.50
2018-05-11T07:37:43.340Z,14.60
2018-05-11T07:40:09.697Z,14.60
2018-05-11T07:42:36.095Z,14.70
2018-05-11T07:45:03.268Z,14.80
2018-05-11T07:47:29.704Z,14.80
2018-05-11T07:49:56.126Z,14.90
2018-05-11T07:52:23.273Z,14.80
2018-05-11T07:54:50.413Z,14.80
2018-05-11T07:57:17.574Z,15.00
2018-05-11T07:59:44.759Z,15.00
2018-05-11T08:02:11.303Z,15.00
2018-05-11T08:04:38.428Z,15.10
2018-05-11T08:07:04.828Z,15.20
2018-05-11T08:09:31.279Z,15.20
2018-05-11T08:11:58.269Z,15.20
2018-05-11T08:14:24.751Z,15.20
2018-05-11T08:16:51.146Z,15.30
2018-05-11T08:19:27.549Z,15.40
2018-05-11T08:21:53.925Z,15.40
2018-05-11T08:24:20.351Z,15.40
2018-05-11T08:26:46.936Z,15.40
2018-05-11T08:29:13.276Z,15.40
2018-05-11T08:31:39.654Z,15.50
2018-05-11T08:34:06.141Z,15.60
2018-05-11T08:36:32.558Z,15.50
2018-05-11T08:38:59.677Z,15.30
2018-05-11T08:41:26.071Z,15.30
2018-05-11T08:43:52.515Z,15.40
2018-05-11T08:46:18.989Z,15.50
2018-05-11T08:48:45.315Z,15.50
2018-05-11T08:51:11.714Z,15.50
2018-05-11T08:53:38.132Z,15.70
2018-05-11T08:56:04.652Z,15.80
2018-05-11T08:58:31.024Z,15.60
2018-05-11T09:00:57.469Z,15.70
2018-05-11T09:03:24.611Z,15.80
2018-05-11T09:05:51.054Z,15.80
2018-05-11T09:08:18.372Z,15.90
2018-05-11T09:10:44.809Z,15.80
2018-05-11T09:13:11.211Z,16.00
2018-05-11T09:15:38.355Z,16.10
2018-05-11T09:18:04.823Z,16.20
2018-05-11T09:20:31.260Z,16.30
2018-05-11T09:22:57.633Z,16.50
2018-05-11T09:25:24.045Z,16.30
2018-05-11T09:27:50.497Z,16.40
2018-05-11T09:30:17.696Z,16.40
2018-05-11T09:32:44.641Z,16.30
2018-05-11T09:35:11.097Z,16.30
2018-05-11T09:37:38.284Z,16.30
2018-05-11T09:40:04.676Z,16.30
2018-05-11T09:42:31.060Z,16.40
2018-05-11T09:44:57.469Z,16.50
2018-05-11T09:47:23.958Z,16.70
2018-05-11T09:49:50.367Z,16.80
2018-05-11T09:52:16.739Z,17.00
2018-05-11T09:54:43.170Z,17.00
2018-05-11T09:57:09.643Z,17.10
2018-05-11T09:59:36.043Z,17.10
2018-05-11T10:02:02.492Z,17.20
2018-05-11T10:04:28.945Z,17.30
2018-05-11T10:06:55.352Z,17.30
2018-05-11T10:09:21.824Z,17.30
2018-05-11T10:11:48.256Z,17.20
2018-05-11T10:14:14.736Z,17.30
2018-05-11T10:16:41.924Z,17.40
2018-05-11T10:19:08.313Z,17.40
2018-05-11T10:21:34.826Z,17.30
2018-05-11T10:24:01.308Z,17.40
2018-05-11T10:26:27.678Z,17.30
2018-05-11T10:28:54.265Z,17.40
2018-05-11T10:31:21.315Z,17.50
2018-05-11T10:33:47.761Z,17.40
2018-05-11T10:36:14.194Z,17.40
2018-05-11T10:38:41.633Z,17.30
2018-05-11T10:41:08.072Z,17.40
2018-05-11T10:43:34.484Z,17.60
2018-05-11T10:46:00.976Z,17.70
2018-05-11T10:48:27.875Z,17.60
2018-05-11T10:50:54.224Z,17.60
2018-05-11T10:53:20.746Z,17.70
2018-05-11T10:55:47.203Z,17.60
2018-05-11T10:58:13.566Z,17.60
2018-05-11T11:00:40.011Z,17.60
2018-05-11T11:03:07.144Z,17.40
2018-05-11T11:05:40.461Z,17.40
2018-05-11T11:08:06.918Z,17.50
2018-05-11T11:10:33.327Z,17.40
2018-05-11T11:12:59.768Z,17.60
2018-05-11T11:15:26.166Z,17.70
2018-05-11T11:17:52.627Z,17.60
2018-05-11T11:20:19.024Z,17.60
2018-05-11T11:22:45.539Z,17.60
2018-05-11T11:25:11.950Z,17.70
2018-05-11T11:27:38.401Z,17.70
2018-05-11T11:30:05.676Z,17.70
2018-05-11T11:32:32.161Z,17.80
2018-05-11T11:34:58.636Z,17.70
2018-05-11T11:37:25.055Z,17.80
2018-05-11T11:39:51.461Z,17.80
2018-05-11T11:42:17.953Z,17.80
2018-05-11T11:44:44.349Z,17.80
2018-05-11T11:47:10.809Z,17.70
2018-05-11T11:49:37.292Z,17.70
2018-05-11T11:52:03.736Z,17.80
2018-05-11T11:54:30.128Z,17.80
2018-05-11T11:56:56.526Z,17.80
2018-05-11T11:59:22.912Z,17.80
2018-05-11T12:01:49.400Z,17.80
2018-05-11T12:04:15.803Z,17.90
2018-05-11T12:06:42.216Z,18.00
2018-05-11T12:09:08.667Z,18.00
2018-05-11T12:11:36.078Z,18.10
2018-05-11T12:14:02.537Z,18.10
2018-05-11T12:16:28.988Z,18.30
2018-05-11T12:18:55.468Z,18.40
2018-05-11T12:21:22.621Z,18.60
2018-05-11T12:23:49.050Z,18.50
2018-05-11T12:26:15.597Z,18.70
2018-05-11T12:28:42.023Z,18.70
2018-05-11T12:31:08.475Z,18.80
2018-05-11T12:33:34.876Z,18.90
2018-05-11T12:36:01.380Z,18.80
2018-05-11T12:38:27.812Z,18.80
2018-05-11T12:40:54.266Z,18.80
2018-05-11T12:43:21.425Z,18.80
2018-05-11T12:45:47.849Z,18.80
2018-05-11T12:48:14.233Z,18.80
2018-05-11T12:50:40.637Z,18.80
2018-05-11T12:53:07.113Z,18.80
2018-05-11T12:55:33.553Z,18.80
2018-05-11T12:57:59.963Z,18.80
2018-05-11T13:00:26.455Z,18.80
2018-05-11T13:02:52.861Z,18.80
2018-05-11T13:05:19.972Z,19.00
2018-05-11T13:07:46.373Z,19.00
2018-05-11T13:10:12.801Z,19.20
2018-05-11T13:12:39.237Z,19.30
2018-05-11T13:15:05.694Z,19.30
2018-05-11T13:17:32.178Z,19.10
2018-05-11T13:19:58.599Z,19.10
2018-05-11T13:22:25.704Z,19.20
2018-05-11T13:24:52.166Z,19.20
2018-05-11T13:27:18.572Z,19.40
2018-05-11T13:29:44.978Z,19.50
2018-05-11T13:32:11.417Z,19.60
2018-05-11T13:34:37.853Z,19.70
2018-05-11T13:37:04.316Z,19.70
2018-05-11T13:39:31.457Z,19.70
2018-05-11T13:41:57.976Z,19.60
2018-05-11T13:44:24.369Z,19.70
2018-05-11T13:46:50.845Z,19.60
2018-05-11T13:49:17.349Z,19.60
2018-05-11T13:51:43.781Z,19.70
2018-05-11T13:54:10.482Z,19.90
2018-05-11T13:56:36.960Z,19.80
2018-05-11T14:01:36.859Z,20.00
2018-05-11T14:04:03.287Z,20.10
2018-05-11T14:06:30.466Z,20.40
2018-05-11T14:08:56.936Z,20.30
2018-05-11T14:11:24.109Z,20.10
2018-05-11T14:13:50.531Z,20.10
2018-05-11T14:16:16.918Z,19.90
2018-05-11T14:18:43.427Z,19.80
2018-05-11T14:21:09.833Z,19.80
2018-05-11T14:23:37.006Z,20.10
2018-05-11T14:26:03.491Z,20.10
2018-05-11T14:28:29.972Z,20.30
2018-05-11T14:30:56.440Z,20.50
2018-05-11T14:33:22.853Z,20.40
2018-05-11T14:35:49.349Z,20.50
2018-05-11T14:38:15.794Z,20.40
2018-05-11T14:40:42.250Z,20.30
2018-05-11T14:43:09.450Z,20.10
2018-05-11T14:45:35.910Z,20.10
2018-05-11T14:48:02.319Z,20.20
2018-05-11T14:50:29.426Z,20.20
2018-05-11T14:52:55.888Z,20.20
2018-05-11T14:55:23.092Z,20.20
2018-05-11T14:57:49.585Z,20.20
2018-05-11T15:00:16.034Z,20.10
2018-05-11T15:02:42.832Z,20.00
2018-05-11T15:05:09.268Z,20.20
2018-05-11T15:07:35.757Z,20.70
2018-05-11T15:10:05.396Z,20.90
2018-05-11T15:12:33.469Z,20.90
2018-05-11T15:14:59.858Z,20.90
2018-05-11T15:17:26.257Z,20.90
2018-05-11T15:19:53.420Z,20.60
2018-05-11T15:22:20.565Z,20.60
2018-05-11T15:24:47.696Z,21.00
2018-05-11T15:27:14.823Z,21.00
2018-05-11T15:29:41.267Z,21.00
2018-05-11T15:32:07.645Z,21.00
2018-05-11T15:34:34.077Z,21.00
2018-05-11T15:37:00.511Z,21.10
2018-05-11T15:39:26.915Z,20.90
2018-05-11T15:41:53.320Z,21.00
2018-05-11T15:44:19.770Z,20.90
2018-05-11T15:46:46.147Z,20.80
2018-05-11T15:49:12.580Z,20.70
2018-05-11T15:51:39.710Z,20.50
2018-05-11T15:54:06.119Z,20.50
2018-05-11T15:56:33.285Z,20.30
2018-05-11T15:58:59.779Z,20.30
2018-05-11T16:01:26.836Z,20.20
2018-05-11T16:03:53.270Z,20.20
2018-05-11T16:06:20.407Z,20.20
2018-05-11T16:08:46.845Z,20.20
2018-05-11T16:11:13.350Z,20.20
2018-05-11T16:13:39.768Z,20.20
2018-05-11T16:16:06.193Z,20.10
2018-05-11T16:18:32.621Z,20.00
2018-05-11T16:20:59.078Z,20.10
2018-05-11T16:23:25.527Z,20.20
2018-05-11T16:25:51.954Z,20.20
2018-05-11T16:28:18.431Z,20.40
2018-05-11T16:30:44.884Z,20.40
2018-05-11T16:33:11.268Z,20.40
2018-05-11T16:35:38.426Z,20.40
2018-05-11T16:38:04.848Z,20.40
2018-05-11T16:40:32.065Z,20.50
2018-05-11T16:42:58.506Z,20.50
2018-05-11T16:45:24.943Z,20.60
2018-05-11T16:47:51.478Z,20.50
2018-05-11T16:50:17.900Z,20.40
2018-05-11T16:52:45.225Z,20.40
2018-05-11T16:55:11.660Z,20.40
2018-05-11T16:57:38.136Z,20.40
2018-05-11T17:00:05.351Z,20.30
2018-05-11T17:02:32.545Z,20.30
2018-05-11T17:04:59.717Z,20.20
2018-05-11T17:07:26.152Z,20.20
2018-05-11T17:09:52.581Z,20.30
2018-05-11T17:12:19.747Z,20.30
2018-05-11T17:14:46.211Z,20.30
2018-05-11T17:17:12.649Z,20.20
2018-05-11T17:19:39.062Z,20.20
2018-05-11T17:22:05.483Z,20.20
2018-05-11T17:24:31.944Z,20.20
2018-05-11T17:26:58.336Z,20.20
2018-05-11T17:29:24.753Z,20.10
2018-05-11T17:31:51.169Z,20.10
2018-05-11T17:34:17.593Z,20.00
2018-05-11T17:36:44.031Z,19.90
2018-05-11T17:39:10.470Z,19.90
2018-05-11T17:41:36.958Z,20.00
2018-05-11T17:44:03.360Z,19.90
2018-05-11T17:46:29.827Z,19.90
2018-05-11T17:48:56.216Z,19.90
2018-05-11T17:51:22.657Z,19.90
2018-05-11T17:53:49.093Z,19.90
2018-05-11T17:56:15.529Z,19.90
2018-05-11T17:58:42.638Z,19.90
2018-05-11T18:01:09.037Z,19.90
2018-05-11T18:03:35.477Z,19.80
2018-05-11T18:06:01.959Z,19.80
2018-05-11T18:08:29.129Z,19.70
2018-05-11T18:10:55.562Z,19.70
2018-05-11T18:13:22.022Z,19.80
2018-05-11T18:15:48.424Z,19.80
2018-05-11T18:18:14.917Z,19.70
2018-05-11T18:20:41.351Z,19.60
2018-05-11T18:23:07.779Z,19.60
2018-05-11T18:25:34.160Z,19.50
2018-05-11T18:28:00.550Z,19.50
2018-05-11T18:30:27.729Z,19.50
2018-05-11T18:32:54.207Z,19.50
2018-05-11T18:35:22.370Z,19.40
2018-05-11T18:37:49.497Z,19.40
2018-05-11T18:40:15.991Z,19.30
2018-05-11T18:42:42.922Z,19.30
2018-05-11T18:45:12.661Z,19.30
2018-05-11T18:47:39.857Z,19.30
2018-05-11T18:50:06.297Z,19.30
2018-05-11T18:52:32.760Z,19.30
2018-05-11T18:54:59.170Z,19.20
2018-05-11T18:57:25.598Z,19.20
2018-05-11T18:59:52.031Z,19.10
2018-05-11T19:02:18.428Z,19.00
2018-05-11T19:04:44.869Z,18.90
2018-05-11T19:07:11.254Z,18.90
2018-05-11T19:09:37.657Z,18.90
2018-05-11T19:12:04.840Z,18.80
2018-05-11T19:14:31.277Z,18.80
2018-05-11T19:16:57.675Z,18.70
2018-05-11T19:19:24.115Z,18.70
2018-05-11T19:21:50.531Z,18.60
2018-05-11T19:24:17.646Z,18.70
2018-05-11T19:26:44.056Z,18.70
2018-05-11T19:29:10.500Z,18.70
2018-05-11T19:31:36.889Z,18.70
2018-05-11T19:34:03.354Z,18.60
2018-05-11T19:36:29.778Z,18.50
2018-05-11T19:38:57.153Z,18.40
2018-05-11T19:41:23.694Z,18.30
2018-05-11T19:43:50.892Z,18.20
2018-05-11T19:46:17.314Z,18.20
2018-05-11T19:48:43.774Z,18.20
2018-05-11T19:51:10.148Z,18.20
2018-05-11T19:53:36.552Z,18.20
2018-05-11T19:56:03.083Z,18.20
2018-05-11T19:58:29.612Z,17.90
2018-05-11T20:00:55.985Z,17.90
2018-05-11T20:03:23.136Z,17.80
2018-05-11T20:05:50.286Z,17.80
2018-05-11T20:08:16.721Z,17.80
2018-05-11T20:10:43.147Z,17.80
2018-05-11T20:13:09.634Z,17.70
2018-05-11T20:15:36.068Z,17.60
2018-05-11T20:18:02.584Z,17.60
2018-05-11T20:20:29.102Z,17.50
2018-05-11T20:22:55.481Z,17.40
2018-05-11T20:25:21.936Z,17.30
2018-05-11T20:27:48.366Z,17.30
2018-05-11T20:30:14.785Z,17.20
2018-05-11T20:32:41.284Z,17.10
2018-05-11T20:35:07.756Z,17.00
2018-05-11T20:37:34.192Z,17.00
2018-05-11T20:40:01.346Z,17.00
2018-05-11T20:42:27.761Z,17.00
2018-05-11T20:44:54.152Z,16.90
2018-05-11T20:47:20.524Z,16.80
2018-05-11T20:49:47.164Z,16.80
2018-05-11T20:52:14.396Z,16.70
2018-05-11T20:54:40.858Z,16.70
2018-05-11T20:57:07.389Z,16.70
2018-05-11T20:59:33.848Z,16.70
2018-05-11T21:02:00.258Z,16.70
2018-05-11T21:04:27.621Z,16.70
2018-05-11T21:06:54.070Z,16.50
2018-05-11T21:09:20.565Z,16.40
2018-05-11T21:11:47.138Z,16.40
2018-05-11T21:14:13.580Z,16.20
2018-05-11T21:16:39.948Z,16.20
2018-05-11T21:19:07.287Z,16.20
2018-05-11T21:21:34.560Z,16.20
2018-05-11T21:24:01.013Z,16.20
2018-05-11T21:26:28.205Z,16.20
2018-05-11T21:28:55.645Z,16.20
2018-05-11T21:31:22.057Z,16.20
2018-05-11T21:33:48.489Z,16.20
2018-05-11T21:36:14.912Z,16.20
2018-05-11T21:38:42.060Z,16.20
2018-05-11T21:41:09.278Z,16.20
2018-05-11T21:43:35.677Z,16.20
2018-05-11T21:46:02.094Z,16.20
2018-05-11T21:48:28.512Z,16.00
2018-05-11T21:50:54.988Z,16.00
2018-05-11T21:53:21.900Z,15.90
2018-05-11T21:55:48.331Z,15.80
2018-05-11T21:58:14.717Z,15.80
2018-05-11T22:00:41.948Z,15.50
2018-05-11T22:03:08.360Z,15.50
2018-05-11T22:05:34.754Z,15.50
2018-05-11T22:08:01.948Z,15.50
2018-05-11T22:10:28.475Z,15.40
2018-05-11T22:13:01.869Z,15.40
2018-05-11T22:15:28.284Z,15.30
2018-05-11T22:17:54.704Z,15.30
2018-05-11T22:20:21.128Z,15.30
2018-05-11T22:22:48.373Z,15.30
2018-05-11T22:25:16.457Z,15.20
2018-05-11T22:27:42.957Z,15.20
2018-05-11T22:30:09.413Z,15.20
2018-05-11T22:32:36.562Z,15.20
2018-05-11T22:35:03.022Z,15.20
2018-05-11T22:37:29.419Z,15.10
2018-05-11T22:39:56.545Z,15.00
2018-05-11T22:42:24.159Z,15.00
2018-05-11T22:44:50.615Z,15.00
2018-05-11T22:47:17.028Z,15.00
2018-05-11T22:49:43.453Z,15.10
2018-05-11T22:52:09.817Z,15.20
2018-05-11T22:54:36.275Z,15.30
2018-05-11T22:57:02.682Z,15.20
2018-05-11T22:59:29.064Z,15.20
2018-05-11T23:01:55.483Z,15.10
2018-05-11T23:04:28.669Z,14.90
2018-05-11T23:06:55.832Z,14.90
2018-05-11T23:09:22.284Z,14.90
2018-05-11T23:11:48.707Z,15.00
2018-05-11T23:14:15.180Z,14.90
2018-05-11T23:16:41.578Z,14.90
2018-05-11T23:19:07.961Z,15.00
2018-05-11T23:21:34.374Z,14.80
2018-05-11T23:24:00.801Z,14.80
2018-05-11T23:26:27.256Z,14.70
2018-05-11T23:28:54.411Z,14.80
2018-05-11T23:31:20.777Z,14.80
2018-05-11T23:33:47.733Z,14.80
2018-05-11T23:36:14.124Z,14.70
2018-05-11T23:38:41.264Z,14.40
2018-05-11T23:41:08.902Z,14.50
2018-05-11T23:43:35.267Z,14.50
2018-05-11T23:46:01.733Z,14.60
2018-05-11T23:48:28.112Z,14.60
2018-05-11T23:50:54.502Z,14.70
2018-05-11T23:53:20.995Z,14.60
2018-05-11T23:55:47.400Z,14.60
2018-05-11T23:58:14.546Z,14.60
